sensor_id;sensor_type;location;lat;lon;timestamp;P1;durP1;ratioP1;P2;durP2;ratioP2
27365;SDS011;14837;57.148;-2.144;2022-12-18T00:01:33;2.03;;;1.00;;
27365;SDS011;14837;57.148;-2.144;2022-12-18T00:04:01;2.42;;;0.90;;
27365;SDS011;14837;57.148;-2.144;2022-12-18T00:06:28;1.85;;;1.15;;
27365;SDS011;14837;57.148;-2.144;2022-12-18T00:08:56;1.95;;;1.05;;
27365;SDS011;14837;57.148;-2.144;2022-12-18T00:11:23;2.63;;;0.60;;
27365;SDS011;14837;57.148;-2.144;2022-12-18T00:13:51;2.47;;;1.15;;
27365;SDS011;14837;57.148;-2.144;2022-12-18T00:16:18;1.20;;;0.90;;
27365;SDS011;14837;57.148;-2.144;2022-12-18T00:18:49;1.42;;;0.73;;
27365;SDS011;14837;57.148;-2.144;2022-12-18T00:21:16;1.45;;;0.90;;
27365;SDS011;14837;57.148;-2.144;2022-12-18T00:23:43;3.03;;;0.93;;
27365;SDS011;14837;57.148;-2.144;2022-12-18T00:26:10;2.03;;;0.68;;
27365;SDS011;14837;57.148;-2.144;2022-12-18T00:28:37;0.88;;;0.50;;
27365;SDS011;14837;57.148;-2.144;2022-12-18T00:31:05;1.17;;;0.88;;
27365;SDS011;14837;57.148;-2.144;2022-12-18T00:33:33;1.77;;;1.02;;
27365;SDS011;14837;57.148;-2.144;2022-12-18T00:36:03;1.58;;;0.88;;
27365;SDS011;14837;57.148;-2.144;2022-12-18T00:38:30;1.50;;;0.77;;
27365;SDS011;14837;57.148;-2.144;2022-12-18T00:40:57;2.47;;;0.73;;
27365;SDS011;14837;57.148;-2.144;2022-12-18T00:43:23;3.22;;;0.93;;
27365;SDS011;14837;57.148;-2.144;2022-12-18T00:45:50;1.77;;;0.75;;
27365;SDS011;14837;57.148;-2.144;2022-12-18T00:48:17;0.82;;;0.50;;
27365;SDS011;14837;57.148;-2.144;2022-12-18T00:50:43;0.77;;;0.55;;
27365;SDS011;14837;57.148;-2.144;2022-12-18T00:53:10;1.33;;;0.77;;
27365;SDS011;14837;57.148;-2.144;2022-12-18T00:55:37;0.50;;;0.50;;
27365;SDS011;14837;57.148;-2.144;2022-12-18T00:58:05;1.95;;;0.65;;
27365;SDS011;14837;57.148;-2.144;2022-12-18T01:00:31;1.50;;;0.60;;
27365;SDS011;14837;57.148;-2.144;2022-12-18T01:02:58;1.75;;;0.88;;
27365;SDS011;14837;57.148;-2.144;2022-12-18T01:05:25;3.22;;;0.50;;
27365;SDS011;14837;57.148;-2.144;2022-12-18T01:07:51;1.02;;;0.63;;
27365;SDS011;14837;57.148;-2.144;2022-12-18T01:10:18;1.35;;;0.80;;
27365;SDS011;14837;57.148;-2.144;2022-12-18T01:12:45;5.40;;;0.80;;
27365;SDS011;14837;57.148;-2.144;2022-12-18T01:15:11;2.83;;;0.60;;
27365;SDS011;14837;57.148;-2.144;2022-12-18T01:17:38;1.20;;;0.65;;
27365;SDS011;14837;57.148;-2.144;2022-12-18T01:20:05;0.55;;;0.50;;
27365;SDS011;14837;57.148;-2.144;2022-12-18T01:22:32;3.40;;;1.60;;
27365;SDS011;14837;57.148;-2.144;2022-12-18T01:24:58;1.15;;;0.80;;
27365;SDS011;14837;57.148;-2.144;2022-12-18T01:27:25;1.88;;;0.68;;
27365;SDS011;14837;57.148;-2.144;2022-12-18T01:29:52;1.88;;;0.90;;
27365;SDS011;14837;57.148;-2.144;2022-12-18T01:32:19;3.45;;;0.90;;
27365;SDS011;14837;57.148;-2.144;2022-12-18T01:34:45;1.83;;;0.68;;
27365;SDS011;14837;57.148;-2.144;2022-12-18T01:37:12;2.03;;;0.77;;
27365;SDS011;14837;57.148;-2.144;2022-12-18T01:39:38;3.13;;;0.65;;
27365;SDS011;14837;57.148;-2.144;2022-12-18T01:42:14;2.50;;;0.93;;
27365;SDS011;14837;57.148;-2.144;2022-12-18T01:47:27;2.25;;;0.90;;
27365;SDS011;14837;57.148;-2.144;2022-12-18T01:49:55;1.20;;;0.80;;
27365;SDS011;14837;57.148;-2.144;2022-12-18T01:52:22;0.80;;;0.70;;
27365;SDS011;14837;57.148;-2.144;2022-12-18T01:54:50;1.70;;;1.05;;
27365;SDS011;14837;57.148;-2.144;2022-12-18T01:57:17;1.75;;;1.05;;
27365;SDS011;14837;57.148;-2.144;2022-12-18T01:59:45;2.63;;;1.10;;
27365;SDS011;14837;57.148;-2.144;2022-12-18T02:02:14;1.92;;;1.50;;
27365;SDS011;14837;57.148;-2.144;2022-12-18T02:04:41;4.03;;;1.10;;
27365;SDS011;14837;57.148;-2.144;2022-12-18T02:10:02;3.80;;;1.38;;
27365;SDS011;14837;57.148;-2.144;2022-12-18T02:12:33;4.53;;;2.00;;
27365;SDS011;14837;57.148;-2.144;2022-12-18T02:15:19;5.35;;;1.70;;
27365;SDS011;14837;57.148;-2.144;2022-12-18T02:17:56;2.35;;;1.38;;
27365;SDS011;14837;57.148;-2.144;2022-12-18T02:28:30;2.33;;;1.60;;
27365;SDS011;14837;57.148;-2.144;2022-12-18T02:30:58;4.43;;;1.30;;
27365;SDS011;14837;57.148;-2.144;2022-12-18T02:33:27;2.88;;;1.42;;
27365;SDS011;14837;57.148;-2.144;2022-12-18T02:35:54;3.60;;;1.38;;
27365;SDS011;14837;57.148;-2.144;2022-12-18T02:38:21;3.00;;;1.27;;
27365;SDS011;14837;57.148;-2.144;2022-12-18T02:40:48;3.47;;;1.35;;
27365;SDS011;14837;57.148;-2.144;2022-12-18T02:43:15;1.63;;;1.38;;
27365;SDS011;14837;57.148;-2.144;2022-12-18T02:45:49;1.20;;;1.08;;
27365;SDS011;14837;57.148;-2.144;2022-12-18T02:48:17;1.95;;;1.13;;
27365;SDS011;14837;57.148;-2.144;2022-12-18T02:50:45;3.45;;;1.30;;
27365;SDS011;14837;57.148;-2.144;2022-12-18T02:53:17;2.55;;;1.27;;
27365;SDS011;14837;57.148;-2.144;2022-12-18T02:58:29;3.30;;;1.33;;
27365;SDS011;14837;57.148;-2.144;2022-12-18T03:03:29;1.27;;;0.90;;
27365;SDS011;14837;57.148;-2.144;2022-12-18T03:05:57;3.45;;;1.15;;
27365;SDS011;14837;57.148;-2.144;2022-12-18T03:08:30;3.03;;;0.95;;
27365;SDS011;14837;57.148;-2.144;2022-12-18T03:10:58;1.05;;;0.93;;
27365;SDS011;14837;57.148;-2.144;2022-12-18T03:13:46;0.40;;;0.40;;
27365;SDS011;14837;57.148;-2.144;2022-12-18T03:16:18;1.73;;;0.90;;
27365;SDS011;14837;57.148;-2.144;2022-12-18T03:18:54;1.13;;;0.80;;
27365;SDS011;14837;57.148;-2.144;2022-12-18T03:21:22;1.20;;;0.90;;
27365;SDS011;14837;57.148;-2.144;2022-12-18T03:23:49;3.00;;;0.60;;
27365;SDS011;14837;57.148;-2.144;2022-12-18T03:26:18;1.52;;;0.80;;
27365;SDS011;14837;57.148;-2.144;2022-12-18T03:28:47;8.38;;;1.05;;
27365;SDS011;14837;57.148;-2.144;2022-12-18T03:31:16;2.28;;;1.00;;
27365;SDS011;14837;57.148;-2.144;2022-12-18T03:33:46;1.65;;;0.82;;
27365;SDS011;14837;57.148;-2.144;2022-12-18T03:36:13;2.15;;;0.73;;
27365;SDS011;14837;57.148;-2.144;2022-12-18T03:38:40;0.52;;;0.50;;
27365;SDS011;14837;57.148;-2.144;2022-12-18T03:41:13;3.10;;;0.80;;
27365;SDS011;14837;57.148;-2.144;2022-12-18T03:46:24;1.98;;;0.70;;
27365;SDS011;14837;57.148;-2.144;2022-12-18T03:48:55;2.55;;;0.70;;
27365;SDS011;14837;57.148;-2.144;2022-12-18T03:51:32;1.33;;;0.68;;
27365;SDS011;14837;57.148;-2.144;2022-12-18T03:54:03;1.33;;;0.75;;
27365;SDS011;14837;57.148;-2.144;2022-12-18T03:56:33;6.18;;;1.20;;
27365;SDS011;14837;57.148;-2.144;2022-12-18T03:59:02;1.48;;;0.98;;
27365;SDS011;14837;57.148;-2.144;2022-12-18T04:01:33;1.38;;;0.70;;
27365;SDS011;14837;57.148;-2.144;2022-12-18T04:04:01;0.85;;;0.60;;
27365;SDS011;14837;57.148;-2.144;2022-12-18T04:06:28;1.60;;;1.00;;
27365;SDS011;14837;57.148;-2.144;2022-12-18T04:08:56;1.10;;;1.00;;
27365;SDS011;14837;57.148;-2.144;2022-12-18T04:11:23;1.08;;;0.63;;
27365;SDS011;14837;57.148;-2.144;2022-12-18T04:13:50;1.90;;;0.60;;
27365;SDS011;14837;57.148;-2.144;2022-12-18T04:16:16;4.97;;;0.75;;
27365;SDS011;14837;57.148;-2.144;2022-12-18T04:18:43;1.05;;;0.82;;
27365;SDS011;14837;57.148;-2.144;2022-12-18T04:21:09;3.33;;;0.65;;
27365;SDS011;14837;57.148;-2.144;2022-12-18T04:23:36;0.65;;;0.60;;
27365;SDS011;14837;57.148;-2.144;2022-12-18T04:26:03;1.85;;;0.60;;
27365;SDS011;14837;57.148;-2.144;2022-12-18T04:28:30;1.52;;;0.80;;
27365;SDS011;14837;57.148;-2.144;2022-12-18T04:30:56;1.35;;;0.70;;
27365;SDS011;14837;57.148;-2.144;2022-12-18T04:33:23;1.17;;;0.80;;
27365;SDS011;14837;57.148;-2.144;2022-12-18T04:35:50;2.22;;;0.57;;
27365;SDS011;14837;57.148;-2.144;2022-12-18T04:38:16;0.73;;;0.70;;
27365;SDS011;14837;57.148;-2.144;2022-12-18T04:40:43;1.70;;;0.70;;
27365;SDS011;14837;57.148;-2.144;2022-12-18T04:43:10;0.95;;;0.70;;
27365;SDS011;14837;57.148;-2.144;2022-12-18T04:45:37;2.70;;;0.70;;
27365;SDS011;14837;57.148;-2.144;2022-12-18T04:48:05;1.23;;;1.08;;
27365;SDS011;14837;57.148;-2.144;2022-12-18T04:50:32;1.00;;;0.65;;
27365;SDS011;14837;57.148;-2.144;2022-12-18T04:52:58;2.55;;;1.10;;
27365;SDS011;14837;57.148;-2.144;2022-12-18T04:55:25;3.03;;;1.02;;
27365;SDS011;14837;57.148;-2.144;2022-12-18T04:57:52;1.10;;;0.88;;
27365;SDS011;14837;57.148;-2.144;2022-12-18T05:00:18;1.58;;;1.10;;
27365;SDS011;14837;57.148;-2.144;2022-12-18T05:02:45;1.55;;;1.10;;
27365;SDS011;14837;57.148;-2.144;2022-12-18T05:05:12;5.50;;;1.60;;
27365;SDS011;14837;57.148;-2.144;2022-12-18T05:07:38;2.17;;;1.30;;
27365;SDS011;14837;57.148;-2.144;2022-12-18T05:10:05;2.40;;;1.30;;
27365;SDS011;14837;57.148;-2.144;2022-12-18T05:12:31;1.60;;;1.20;;
27365;SDS011;14837;57.148;-2.144;2022-12-18T05:14:58;3.67;;;1.20;;
27365;SDS011;14837;57.148;-2.144;2022-12-18T05:17:24;2.10;;;1.13;;
27365;SDS011;14837;57.148;-2.144;2022-12-18T05:19:51;3.95;;;1.10;;
27365;SDS011;14837;57.148;-2.144;2022-12-18T05:22:17;3.58;;;1.27;;
27365;SDS011;14837;57.148;-2.144;2022-12-18T05:24:44;6.65;;;1.40;;
27365;SDS011;14837;57.148;-2.144;2022-12-18T05:27:10;1.85;;;1.30;;
27365;SDS011;14837;57.148;-2.144;2022-12-18T05:29:37;1.77;;;1.20;;
27365;SDS011;14837;57.148;-2.144;2022-12-18T05:32:04;2.42;;;1.30;;
27365;SDS011;14837;57.148;-2.144;2022-12-18T05:34:30;2.83;;;1.50;;
27365;SDS011;14837;57.148;-2.144;2022-12-18T05:36:57;2.10;;;1.30;;
27365;SDS011;14837;57.148;-2.144;2022-12-18T05:39:23;2.55;;;1.60;;
27365;SDS011;14837;57.148;-2.144;2022-12-18T05:41:50;2.20;;;1.90;;
27365;SDS011;14837;57.148;-2.144;2022-12-18T05:44:16;2.55;;;2.08;;
27365;SDS011;14837;57.148;-2.144;2022-12-18T05:46:43;2.90;;;2.03;;
27365;SDS011;14837;57.148;-2.144;2022-12-18T05:49:10;3.45;;;2.55;;
27365;SDS011;14837;57.148;-2.144;2022-12-18T05:51:36;7.45;;;2.70;;
27365;SDS011;14837;57.148;-2.144;2022-12-18T05:54:03;3.67;;;2.83;;
27365;SDS011;14837;57.148;-2.144;2022-12-18T05:56:30;4.57;;;3.55;;
27365;SDS011;14837;57.148;-2.144;2022-12-18T05:58:57;5.80;;;2.80;;
27365;SDS011;14837;57.148;-2.144;2022-12-18T06:01:25;7.43;;;3.08;;
27365;SDS011;14837;57.148;-2.144;2022-12-18T06:03:52;6.57;;;2.95;;
27365;SDS011;14837;57.148;-2.144;2022-12-18T06:06:20;5.15;;;3.15;;
27365;SDS011;14837;57.148;-2.144;2022-12-18T06:08:47;5.00;;;3.72;;
27365;SDS011;14837;57.148;-2.144;2022-12-18T06:11:16;4.90;;;3.90;;
27365;SDS011;14837;57.148;-2.144;2022-12-18T06:13:42;5.38;;;3.03;;
27365;SDS011;14837;57.148;-2.144;2022-12-18T06:16:09;7.78;;;4.07;;
27365;SDS011;14837;57.148;-2.144;2022-12-18T06:18:35;4.55;;;3.58;;
27365;SDS011;14837;57.148;-2.144;2022-12-18T06:21:02;6.20;;;3.80;;
27365;SDS011;14837;57.148;-2.144;2022-12-18T06:23:29;5.20;;;4.03;;
27365;SDS011;14837;57.148;-2.144;2022-12-18T06:25:55;5.32;;;4.47;;
27365;SDS011;14837;57.148;-2.144;2022-12-18T06:28:22;5.05;;;3.88;;
27365;SDS011;14837;57.148;-2.144;2022-12-18T06:30:49;4.85;;;3.55;;
27365;SDS011;14837;57.148;-2.144;2022-12-18T06:33:15;7.97;;;4.60;;
27365;SDS011;14837;57.148;-2.144;2022-12-18T06:35:42;5.75;;;4.30;;
27365;SDS011;14837;57.148;-2.144;2022-12-18T06:38:09;7.60;;;5.00;;
27365;SDS011;14837;57.148;-2.144;2022-12-18T06:40:36;7.60;;;4.45;;
27365;SDS011;14837;57.148;-2.144;2022-12-18T06:43:03;5.60;;;4.93;;
27365;SDS011;14837;57.148;-2.144;2022-12-18T06:45:29;6.03;;;4.53;;
27365;SDS011;14837;57.148;-2.144;2022-12-18T06:47:56;5.55;;;4.65;;
27365;SDS011;14837;57.148;-2.144;2022-12-18T06:50:23;10.00;;;6.80;;
27365;SDS011;14837;57.148;-2.144;2022-12-18T06:52:50;7.25;;;6.00;;
27365;SDS011;14837;57.148;-2.144;2022-12-18T06:55:17;11.55;;;7.80;;
27365;SDS011;14837;57.148;-2.144;2022-12-18T06:57:43;7.43;;;5.60;;
27365;SDS011;14837;57.148;-2.144;2022-12-18T07:00:10;8.43;;;5.90;;
27365;SDS011;14837;57.148;-2.144;2022-12-18T07:02:36;11.55;;;8.32;;
27365;SDS011;14837;57.148;-2.144;2022-12-18T07:05:03;15.65;;;8.13;;
27365;SDS011;14837;57.148;-2.144;2022-12-18T07:07:36;9.57;;;7.75;;
27365;SDS011;14837;57.148;-2.144;2022-12-18T07:10:02;11.95;;;7.40;;
27365;SDS011;14837;57.148;-2.144;2022-12-18T07:12:29;9.85;;;7.03;;
27365;SDS011;14837;57.148;-2.144;2022-12-18T07:14:55;13.80;;;8.90;;
27365;SDS011;14837;57.148;-2.144;2022-12-18T07:17:22;12.63;;;8.45;;
27365;SDS011;14837;57.148;-2.144;2022-12-18T07:19:48;13.77;;;9.27;;
27365;SDS011;14837;57.148;-2.144;2022-12-18T07:22:15;9.02;;;7.18;;
27365;SDS011;14837;57.148;-2.144;2022-12-18T07:24:41;14.10;;;7.82;;
27365;SDS011;14837;57.148;-2.144;2022-12-18T07:27:08;8.65;;;6.40;;
27365;SDS011;14837;57.148;-2.144;2022-12-18T07:29:35;11.75;;;7.82;;
27365;SDS011;14837;57.148;-2.144;2022-12-18T07:32:03;9.50;;;5.85;;
27365;SDS011;14837;57.148;-2.144;2022-12-18T07:34:29;9.40;;;6.55;;
27365;SDS011;14837;57.148;-2.144;2022-12-18T07:36:59;10.65;;;8.25;;
27365;SDS011;14837;57.148;-2.144;2022-12-18T07:39:25;11.35;;;7.05;;
27365;SDS011;14837;57.148;-2.144;2022-12-18T07:41:52;12.32;;;8.38;;
27365;SDS011;14837;57.148;-2.144;2022-12-18T07:44:37;16.83;;;8.25;;
27365;SDS011;14837;57.148;-2.144;2022-12-18T07:47:04;12.63;;;8.18;;
27365;SDS011;14837;57.148;-2.144;2022-12-18T07:49:37;13.68;;;7.93;;
27365;SDS011;14837;57.148;-2.144;2022-12-18T07:52:03;13.60;;;7.90;;
27365;SDS011;14837;57.148;-2.144;2022-12-18T07:54:30;9.23;;;6.05;;
27365;SDS011;14837;57.148;-2.144;2022-12-18T07:56:56;9.35;;;6.78;;
27365;SDS011;14837;57.148;-2.144;2022-12-18T07:59:22;13.25;;;6.93;;
27365;SDS011;14837;57.148;-2.144;2022-12-18T08:01:49;7.60;;;5.68;;
27365;SDS011;14837;57.148;-2.144;2022-12-18T08:04:16;6.32;;;5.18;;
27365;SDS011;14837;57.148;-2.144;2022-12-18T08:06:42;5.18;;;4.60;;
27365;SDS011;14837;57.148;-2.144;2022-12-18T08:09:13;6.40;;;4.45;;
27365;SDS011;14837;57.148;-2.144;2022-12-18T08:11:40;7.35;;;4.57;;
27365;SDS011;14837;57.148;-2.144;2022-12-18T08:14:06;7.55;;;5.03;;
27365;SDS011;14837;57.148;-2.144;2022-12-18T08:16:33;7.72;;;5.47;;
27365;SDS011;14837;57.148;-2.144;2022-12-18T08:18:59;7.72;;;3.95;;
27365;SDS011;14837;57.148;-2.144;2022-12-18T08:21:27;5.20;;;4.03;;
27365;SDS011;14837;57.148;-2.144;2022-12-18T08:23:55;7.55;;;4.85;;
27365;SDS011;14837;57.148;-2.144;2022-12-18T08:26:22;6.15;;;4.38;;
27365;SDS011;14837;57.148;-2.144;2022-12-18T08:28:49;7.75;;;5.47;;
27365;SDS011;14837;57.148;-2.144;2022-12-18T08:31:16;8.45;;;4.57;;
27365;SDS011;14837;57.148;-2.144;2022-12-18T08:33:42;7.40;;;4.47;;
27365;SDS011;14837;57.148;-2.144;2022-12-18T08:36:09;7.68;;;4.55;;
27365;SDS011;14837;57.148;-2.144;2022-12-18T08:38:36;6.38;;;4.47;;
27365;SDS011;14837;57.148;-2.144;2022-12-18T08:41:04;5.07;;;4.18;;
27365;SDS011;14837;57.148;-2.144;2022-12-18T08:43:30;7.03;;;4.35;;
27365;SDS011;14837;57.148;-2.144;2022-12-18T08:46:16;7.20;;;4.18;;
27365;SDS011;14837;57.148;-2.144;2022-12-18T08:48:43;4.90;;;2.85;;
27365;SDS011;14837;57.148;-2.144;2022-12-18T08:51:10;4.53;;;2.90;;
27365;SDS011;14837;57.148;-2.144;2022-12-18T08:53:37;8.65;;;4.07;;
27365;SDS011;14837;57.148;-2.144;2022-12-18T08:56:04;4.20;;;2.65;;
27365;SDS011;14837;57.148;-2.144;2022-12-18T08:58:31;4.18;;;2.55;;
27365;SDS011;14837;57.148;-2.144;2022-12-18T09:01:01;3.80;;;2.35;;
27365;SDS011;14837;57.148;-2.144;2022-12-18T09:03:28;3.53;;;2.83;;
27365;SDS011;14837;57.148;-2.144;2022-12-18T09:05:55;3.90;;;2.45;;
27365;SDS011;14837;57.148;-2.144;2022-12-18T09:08:21;3.45;;;2.05;;
27365;SDS011;14837;57.148;-2.144;2022-12-18T09:10:48;3.67;;;2.30;;
27365;SDS011;14837;57.148;-2.144;2022-12-18T09:13:15;3.35;;;2.05;;
27365;SDS011;14837;57.148;-2.144;2022-12-18T09:15:42;3.97;;;2.00;;
27365;SDS011;14837;57.148;-2.144;2022-12-18T09:18:09;3.85;;;2.70;;
27365;SDS011;14837;57.148;-2.144;2022-12-18T09:20:36;5.28;;;2.28;;
27365;SDS011;14837;57.148;-2.144;2022-12-18T09:23:03;3.13;;;2.22;;
27365;SDS011;14837;57.148;-2.144;2022-12-18T09:25:30;5.50;;;2.65;;
27365;SDS011;14837;57.148;-2.144;2022-12-18T09:28:00;3.03;;;2.50;;
27365;SDS011;14837;57.148;-2.144;2022-12-18T09:30:26;10.00;;;3.88;;
27365;SDS011;14837;57.148;-2.144;2022-12-18T09:32:53;8.45;;;2.47;;
27365;SDS011;14837;57.148;-2.144;2022-12-18T09:35:20;6.97;;;2.50;;
27365;SDS011;14837;57.148;-2.144;2022-12-18T09:37:46;5.20;;;2.95;;
27365;SDS011;14837;57.148;-2.144;2022-12-18T09:40:14;6.07;;;2.92;;
27365;SDS011;14837;57.148;-2.144;2022-12-18T09:42:40;8.32;;;2.70;;
27365;SDS011;14837;57.148;-2.144;2022-12-18T09:45:12;4.85;;;2.25;;
27365;SDS011;14837;57.148;-2.144;2022-12-18T09:47:39;3.17;;;2.13;;
27365;SDS011;14837;57.148;-2.144;2022-12-18T09:50:16;4.38;;;2.42;;
27365;SDS011;14837;57.148;-2.144;2022-12-18T09:52:47;6.65;;;3.17;;
27365;SDS011;14837;57.148;-2.144;2022-12-18T09:57:49;5.47;;;2.65;;
27365;SDS011;14837;57.148;-2.144;2022-12-18T10:00:20;5.20;;;3.08;;
27365;SDS011;14837;57.148;-2.144;2022-12-18T10:02:47;4.40;;;2.90;;
27365;SDS011;14837;57.148;-2.144;2022-12-18T10:05:20;4.85;;;3.10;;
27365;SDS011;14837;57.148;-2.144;2022-12-18T10:10:53;4.85;;;3.42;;
27365;SDS011;14837;57.148;-2.144;2022-12-18T10:16:02;8.35;;;4.75;;
27365;SDS011;14837;57.148;-2.144;2022-12-18T10:21:02;6.25;;;4.40;;
27365;SDS011;14837;57.148;-2.144;2022-12-18T10:23:37;8.15;;;5.07;;
27365;SDS011;14837;57.148;-2.144;2022-12-18T10:26:13;8.90;;;5.40;;
27365;SDS011;14837;57.148;-2.144;2022-12-18T10:28:40;7.45;;;5.30;;
27365;SDS011;14837;57.148;-2.144;2022-12-18T10:31:15;8.40;;;4.65;;
27365;SDS011;14837;57.148;-2.144;2022-12-18T10:33:43;9.10;;;4.22;;
27365;SDS011;14837;57.148;-2.144;2022-12-18T10:36:10;13.52;;;5.35;;
27365;SDS011;14837;57.148;-2.144;2022-12-18T10:38:36;10.77;;;5.22;;
27365;SDS011;14837;57.148;-2.144;2022-12-18T10:41:04;10.02;;;4.75;;
27365;SDS011;14837;57.148;-2.144;2022-12-18T10:43:36;15.10;;;6.45;;
27365;SDS011;14837;57.148;-2.144;2022-12-18T10:54:06;10.88;;;3.47;;
27365;SDS011;14837;57.148;-2.144;2022-12-18T10:56:39;9.95;;;3.28;;
27365;SDS011;14837;57.148;-2.144;2022-12-18T10:59:08;7.00;;;3.85;;
27365;SDS011;14837;57.148;-2.144;2022-12-18T11:01:57;11.45;;;3.97;;
27365;SDS011;14837;57.148;-2.144;2022-12-18T11:04:25;7.57;;;3.30;;
27365;SDS011;14837;57.148;-2.144;2022-12-18T11:06:59;10.50;;;3.15;;
27365;SDS011;14837;57.148;-2.144;2022-12-18T11:11:56;9.68;;;4.07;;
27365;SDS011;14837;57.148;-2.144;2022-12-18T11:16:50;8.95;;;3.50;;
27365;SDS011;14837;57.148;-2.144;2022-12-18T11:19:37;7.05;;;3.67;;
27365;SDS011;14837;57.148;-2.144;2022-12-18T11:22:28;8.70;;;3.60;;
27365;SDS011;14837;57.148;-2.144;2022-12-18T11:24:56;11.85;;;5.07;;
27365;SDS011;14837;57.148;-2.144;2022-12-18T11:27:47;9.10;;;4.18;;
27365;SDS011;14837;57.148;-2.144;2022-12-18T11:30:22;5.82;;;3.15;;
27365;SDS011;14837;57.148;-2.144;2022-12-18T11:32:59;10.25;;;3.88;;
27365;SDS011;14837;57.148;-2.144;2022-12-18T11:38:17;10.93;;;4.05;;
27365;SDS011;14837;57.148;-2.144;2022-12-18T11:40:47;11.75;;;3.03;;
27365;SDS011;14837;57.148;-2.144;2022-12-18T11:43:22;14.93;;;4.45;;
27365;SDS011;14837;57.148;-2.144;2022-12-18T11:45:54;9.15;;;3.38;;
27365;SDS011;14837;57.148;-2.144;2022-12-18T11:48:25;8.65;;;2.95;;
27365;SDS011;14837;57.148;-2.144;2022-12-18T11:50:56;7.20;;;2.97;;
27365;SDS011;14837;57.148;-2.144;2022-12-18T11:53:24;12.57;;;2.75;;
27365;SDS011;14837;57.148;-2.144;2022-12-18T12:13:59;10.60;;;2.97;;
27365;SDS011;14837;57.148;-2.144;2022-12-18T12:21:40;12.85;;;3.00;;
27365;SDS011;14837;57.148;-2.144;2022-12-18T12:26:45;11.50;;;2.50;;
27365;SDS011;14837;57.148;-2.144;2022-12-18T12:34:21;8.27;;;2.70;;
27365;SDS011;14837;57.148;-2.144;2022-12-18T12:39:20;12.52;;;3.63;;
27365;SDS011;14837;57.148;-2.144;2022-12-18T12:41:48;7.60;;;3.58;;
27365;SDS011;14837;57.148;-2.144;2022-12-18T12:44:35;8.73;;;3.45;;
27365;SDS011;14837;57.148;-2.144;2022-12-18T12:47:13;9.63;;;3.22;;
27365;SDS011;14837;57.148;-2.144;2022-12-18T12:49:45;16.58;;;4.97;;
27365;SDS011;14837;57.148;-2.144;2022-12-18T12:54:51;10.35;;;3.95;;
27365;SDS011;14837;57.148;-2.144;2022-12-18T12:57:22;11.55;;;4.13;;
27365;SDS011;14837;57.148;-2.144;2022-12-18T13:02:50;11.05;;;4.05;;
27365;SDS011;14837;57.148;-2.144;2022-12-18T13:08:05;11.20;;;4.82;;
27365;SDS011;14837;57.148;-2.144;2022-12-18T13:15:34;12.60;;;5.10;;
27365;SDS011;14837;57.148;-2.144;2022-12-18T13:18:09;11.82;;;5.13;;
27365;SDS011;14837;57.148;-2.144;2022-12-18T13:20:42;12.07;;;6.32;;
27365;SDS011;14837;57.148;-2.144;2022-12-18T13:23:23;13.40;;;6.38;;
27365;SDS011;14837;57.148;-2.144;2022-12-18T13:25:53;21.23;;;6.68;;
27365;SDS011;14837;57.148;-2.144;2022-12-18T13:31:02;15.00;;;5.22;;
27365;SDS011;14837;57.148;-2.144;2022-12-18T13:38:42;19.08;;;6.88;;
27365;SDS011;14837;57.148;-2.144;2022-12-18T13:43:45;12.88;;;6.18;;
27365;SDS011;14837;57.148;-2.144;2022-12-18T14:09:45;13.55;;;4.85;;
27365;SDS011;14837;57.148;-2.144;2022-12-18T14:12:22;14.18;;;5.85;;
27365;SDS011;14837;57.148;-2.144;2022-12-18T14:15:31;14.82;;;6.72;;
27365;SDS011;14837;57.148;-2.144;2022-12-18T14:17:57;10.35;;;5.40;;
27365;SDS011;14837;57.148;-2.144;2022-12-18T14:20:25;14.40;;;5.93;;
27365;SDS011;14837;57.148;-2.144;2022-12-18T14:22:52;15.55;;;6.40;;
27365;SDS011;14837;57.148;-2.144;2022-12-18T14:27:50;14.35;;;6.85;;
27365;SDS011;14837;57.148;-2.144;2022-12-18T14:30:24;12.73;;;5.28;;
27365;SDS011;14837;57.148;-2.144;2022-12-18T14:39:36;12.77;;;5.70;;
27365;SDS011;14837;57.148;-2.144;2022-12-18T14:42:03;14.10;;;4.22;;
27365;SDS011;14837;57.148;-2.144;2022-12-18T14:44:29;11.30;;;4.85;;
27365;SDS011;14837;57.148;-2.144;2022-12-18T14:47:15;12.60;;;5.13;;
27365;SDS011;14837;57.148;-2.144;2022-12-18T14:49:43;12.93;;;5.22;;
27365;SDS011;14837;57.148;-2.144;2022-12-18T14:52:23;19.70;;;5.80;;
27365;SDS011;14837;57.148;-2.144;2022-12-18T14:54:51;10.77;;;4.72;;
27365;SDS011;14837;57.148;-2.144;2022-12-18T14:57:36;25.15;;;6.72;;
27365;SDS011;14837;57.148;-2.144;2022-12-18T15:00:05;12.27;;;4.65;;
27365;SDS011;14837;57.148;-2.144;2022-12-18T15:02:34;18.42;;;5.80;;
27365;SDS011;14837;57.148;-2.144;2022-12-18T15:05:14;14.65;;;5.03;;
27365;SDS011;14837;57.148;-2.144;2022-12-18T15:07:43;17.80;;;4.55;;
27365;SDS011;14837;57.148;-2.144;2022-12-18T15:10:21;14.27;;;5.03;;
27365;SDS011;14837;57.148;-2.144;2022-12-18T15:12:49;15.13;;;5.40;;
27365;SDS011;14837;57.148;-2.144;2022-12-18T15:18:11;15.50;;;5.55;;
27365;SDS011;14837;57.148;-2.144;2022-12-18T15:23:26;21.73;;;7.38;;
27365;SDS011;14837;57.148;-2.144;2022-12-18T15:26:01;18.20;;;4.70;;
27365;SDS011;14837;57.148;-2.144;2022-12-18T15:28:31;14.80;;;4.75;;
27365;SDS011;14837;57.148;-2.144;2022-12-18T15:33:32;13.50;;;4.78;;
27365;SDS011;14837;57.148;-2.144;2022-12-18T15:36:18;11.35;;;4.60;;
27365;SDS011;14837;57.148;-2.144;2022-12-18T15:38:52;10.98;;;4.78;;
27365;SDS011;14837;57.148;-2.144;2022-12-18T15:41:21;9.75;;;4.40;;
27365;SDS011;14837;57.148;-2.144;2022-12-18T15:43:51;13.93;;;3.63;;
27365;SDS011;14837;57.148;-2.144;2022-12-18T15:46:21;14.45;;;3.92;;
27365;SDS011;14837;57.148;-2.144;2022-12-18T15:48:49;17.65;;;4.13;;
27365;SDS011;14837;57.148;-2.144;2022-12-18T15:51:28;10.90;;;4.72;;
27365;SDS011;14837;57.148;-2.144;2022-12-18T15:53:58;15.85;;;4.13;;
27365;SDS011;14837;57.148;-2.144;2022-12-18T15:56:25;14.18;;;3.72;;
27365;SDS011;14837;57.148;-2.144;2022-12-18T15:59:12;8.70;;;4.40;;
27365;SDS011;14837;57.148;-2.144;2022-12-18T16:01:40;19.70;;;4.03;;
27365;SDS011;14837;57.148;-2.144;2022-12-18T16:04:10;14.50;;;3.95;;
27365;SDS011;14837;57.148;-2.144;2022-12-18T16:06:38;11.52;;;3.83;;
27365;SDS011;14837;57.148;-2.144;2022-12-18T16:09:25;19.88;;;5.25;;
27365;SDS011;14837;57.148;-2.144;2022-12-18T16:11:52;18.95;;;4.45;;
27365;SDS011;14837;57.148;-2.144;2022-12-18T16:14:20;18.15;;;4.53;;
27365;SDS011;14837;57.148;-2.144;2022-12-18T16:16:48;9.48;;;4.25;;
27365;SDS011;14837;57.148;-2.144;2022-12-18T16:19:16;13.07;;;3.97;;
27365;SDS011;14837;57.148;-2.144;2022-12-18T16:21:43;10.38;;;4.68;;
27365;SDS011;14837;57.148;-2.144;2022-12-18T16:24:16;13.40;;;4.03;;
27365;SDS011;14837;57.148;-2.144;2022-12-18T16:26:43;21.60;;;4.47;;
27365;SDS011;14837;57.148;-2.144;2022-12-18T16:29:10;12.70;;;3.83;;
27365;SDS011;14837;57.148;-2.144;2022-12-18T16:31:37;13.43;;;5.05;;
27365;SDS011;14837;57.148;-2.144;2022-12-18T16:34:18;19.77;;;5.45;;
27365;SDS011;14837;57.148;-2.144;2022-12-18T16:36:52;21.13;;;4.10;;
27365;SDS011;14837;57.148;-2.144;2022-12-18T16:39:23;16.30;;;4.75;;
27365;SDS011;14837;57.148;-2.144;2022-12-18T16:41:50;14.00;;;4.28;;
27365;SDS011;14837;57.148;-2.144;2022-12-18T16:44:17;20.83;;;5.70;;
27365;SDS011;14837;57.148;-2.144;2022-12-18T16:46:44;14.65;;;4.18;;
27365;SDS011;14837;57.148;-2.144;2022-12-18T16:49:14;18.40;;;5.50;;
27365;SDS011;14837;57.148;-2.144;2022-12-18T16:51:41;18.33;;;5.80;;
27365;SDS011;14837;57.148;-2.144;2022-12-18T16:54:08;10.00;;;4.32;;
27365;SDS011;14837;57.148;-2.144;2022-12-18T16:56:42;12.85;;;5.53;;
27365;SDS011;14837;57.148;-2.144;2022-12-18T16:59:09;9.68;;;5.32;;
27365;SDS011;14837;57.148;-2.144;2022-12-18T17:01:36;15.20;;;5.97;;
27365;SDS011;14837;57.148;-2.144;2022-12-18T17:04:04;19.25;;;5.70;;
27365;SDS011;14837;57.148;-2.144;2022-12-18T17:06:32;22.48;;;7.82;;
27365;SDS011;14837;57.148;-2.144;2022-12-18T17:09:01;19.83;;;5.72;;